Monday, June 27, 2016
14:53 UTC
  |  Log In   |  Register Free
Airport Search:

Meyers-Diver'S Airport
(3TE)

Meyers-Diver'S Airport Diagram
No Airport Diagram Available

FAA data valid effective May 26 2016 - Jul 21 2016 (unless otherwise noted).

 
 
 
 
 
 
 
 
 
 
 
 
 
 
Current Aviation Weather for 3TE

Weather Summary


Current weather conditions are not available for 3TE - The nearest NOAA weather station is at ADG, (11.3 nm SW from 3TE)

The most recent METAR observation for 3TE was updated at: 12:53 UTC
METAR for 3TE is not available. Closest METAR is for KARB 14.7 nm SW
KARB  (14.7 nm SW)   (most recent observation was updated at 27:13 UTC)
271353Z AUTO 25007KT 10SM CLR 27/18 A3000 RMK AO2 SLP153 T02670178

KDUH  (21.5 nm NW)   (most recent observation was updated at 27:14 UTC)
271435Z AUTO 23005KT 10SM CLR 28/20 A3002 RMK AO2 T02790198

TAF for 3TE is not available.
KYIP  (22.2 nm SW)   (most recent observation was updatred at 27:11 UTC)
271125Z 2712/2812 25008KT P6SM SCT250 FM271600 28013G23KT P6SM FEW060 FM280100 31010KT P6SM SCT045 FM280500 33005KT P6SM BKN045


KTOL  (27.0 nm NW)   (most recent observation was updatred at 27:11 UTC)
271120Z 2712/2812 24005KT 5SM BR SCT003 BKN200 TEMPO 2712/2713 2SM BR BKN003 FM271330 27008KT P6SM FEW150 BKN200 FM271800 26012G20KT P6SM FEW040 FM280000 28006KT P6SM FEW150 SCT200


KJXN  (27.1 nm SE)   (most recent observation was updatred at 27:11 UTC)
271140Z 2712/2812 26005KT P6SM SKC TEMPO 2712/2713 3SM BR FM271500 26009G15KT P6SM SKC FM272200 29010G16KT P6SM SCT050 FM280400 31008KT P6SM BKN035
GlobalAir.com is loading additional information.
 Current Weather at ADG
63.0 F° (17.2 C°)

West winds at 6.9 mph
Pressure:
30.04 in
Humidity:
100%
Wind:
West at 6.9 mph
Dew Point:
63.0 F° (17.2 C°)
Visibility:
10.00 mi
3TE NOAA Radar




Find All Airport Services Find A Hotel Find A Rental Car Find A Golf Course Find A Restaurant $100 Hamburger



Airport Weather Forecast for 3TE

Translated METAR for KADG (1353 UTC)
METAR:
KADG 271353Z AUTO 26006KT 10SM CLR 23/20 A3003 RMK AO2 SLP167 T02330200 $
Conditions at:
KADG (Lenawee County, MI) observed 1353 UTC 27 June 2016
Temperature:
23°C (73.4°F)
Dewpoint:
20°C (68°F) [RH = 83.2]
Pressure:
30.03 inches Hg (1016.9 mb)
pressure at sea level is 167 in Hg
Winds:
from the W (260 degrees) at 6.9 mph (6 knots: 3.1 m/s)
Visibility:
10 mile(s)
Ceiling:
at least 12,000 feet AGL
Clouds:
Clear below 12,000 feet AGL
Remarks:
site is un-manned
SOME DATA ABOVE MAY BE INACCURATE!!!
"$" is an indication the sensor requires maintenance
site is automated and HAS a precipitation sensor

Translated TAF for KYIP (Willow Run, MI) (1125 UTC)
TAF text:
KYIP 271125Z 2712/2812 25008KT P6SM SCT250
Forecast period:
Monday Jun 27 2016 12:00 UTC - Tuesday Jun 28 2016 12:00 UTC
Forecast type:
FROM: standard forecast or significant change
Winds:
from the WSW (250 degrees) at 9.2 mph (8 knots: 4.1 m/s)
Visibility:
6 or more mile(s) (9.7+ km)
Ceiling:
at least 12,000 feet AGL
Clouds:
Scattered Clouds at 25,000 feet AGL
Weather:
no significant weather observed at this time
TAF text:
FM271600 28013G23KT P6SM FEW060
Forecast period:
Monday Jun 27 2016 16:00 UTC - Tuesday Jun 28 2016 01:00 UTC
Forecast type:
FROM: standard forecast or significant change
Winds:
from the W (280 degrees) at 15 mph (13 knots: 6.7 m/s)
gusting to 26.5 mph (23 knots: 11.8 m/s)
Visibility:
6 or more mile(s) (9.7+ km)
Ceiling:
at least 12,000 feet AGL
Clouds:
Few Clouds at 6,000 feet AGL
Weather:
no significant weather observed at this time
TAF text:
FM280100 31010KT P6SM SCT045
Forecast period:
Tuesday Jun 28 2016 01:00 UTC - Tuesday Jun 28 2016 05:00 UTC
Forecast type:
FROM: standard forecast or significant change
Winds:
from the NW (310 degrees) at 11.5 mph (10 knots: 5.1 m/s)
Visibility:
6 or more mile(s) (9.7+ km)
Ceiling:
at least 12,000 feet AGL
Clouds:
Scattered Clouds at 4,500 feet AGL
Weather:
no significant weather observed at this time
TAF text:
FM280500 33005KT P6SM BKN045
Forecast period:
Tuesday Jun 28 2016 05:00 UTC - Tuesday Jun 28 2016 12:00 UTC
Forecast type:
FROM: standard forecast or significant change
Winds:
from the NNW (330 degrees) at 5.8 mph (5 knots: 2.6 m/s)
Visibility:
6 or more mile(s) (9.7+ km)
Ceiling:
4,500 feet AGL
Clouds:
Broken Cloud Cover at 4,500 feet AGL
Weather:
no significant weather observed at this time
FBO's on the Field
FBO Company Facility Photos Services Transportation Aviation Fuel Prices: Prices include tax
Catering Weather Repair Courtesy Rental Type 100LL JetA JetA+ MOGAS 8087
 
Village of Boyceville

This FBO has not yet been rated
FS:Shell
Last Updated: May-23
Login to update fuel prices
SS:
Contact Village of BoycevilleMore FBO Information
 
Add another FBO Facility Photos Catering Weather Repair Courtesy Rental Type 100LL JetA JetA+ MOGAS 8087
Services Transportation Aviation Fuel Prices: Prices include tax


model-print
model-print
model-print
model-print